Time;durP1;ratioP1;P1;durP2;ratioP2;P2;SDS_P1;SDS_P2;PMS_P1;PMS_P2;Temp;Humidity;BMP_temperature;BMP_pressure;BME280_temperature;BME280_humidity;BME280_pressure;Samples;Min_cycle;Max_cycle;Signal;HPM_P1;HPM_P2
2023/12/10 00:00:41;;;;;;;0.20;0.10;;;;;;;;;;4933195;29;20402;-87
2023/12/10 00:03:13;;;;;;;0.20;0.00;;;;;;;;;;4915592;29;20047;-89
2023/12/10 00:05:43;;;;;;;0.55;0.55;;;;;;;;;;4933244;29;20052;-89
2023/12/10 00:08:09;;;;;;;0.20;0.10;;;;;;;;;;4937159;29;20186;-83
2023/12/10 00:10:43;;;;;;;0.45;0.45;;;;;;;;;;4917218;29;20042;-90
2023/12/10 00:13:18;;;;;;;0.20;0.10;;;;;;;;;;4916537;29;20047;-87
2023/12/10 00:16:02;;;;;;;0.28;0.15;;;;;;;;;;4934658;29;20032;-92
2023/12/10 00:18:31;;;;;;;0.32;0.32;;;;;;;;;;4915837;29;20070;-89
2023/12/10 00:21:03;;;;;;;3.00;0.43;;;;;;;;;;4916258;29;20035;-85
2023/12/10 00:23:32;;;;;;;0.20;0.00;;;;;;;;;;4910811;29;20756;-85
2023/12/10 00:26:00;;;;;;;0.20;0.08;;;;;;;;;;4930663;28;20063;-86
2023/12/10 00:28:26;;;;;;;0.20;0.00;;;;;;;;;;4929461;29;20616;-87
2023/12/10 00:31:02;;;;;;;0.20;0.10;;;;;;;;;;4915107;29;20055;-85
2023/12/10 00:33:40;;;;;;;0.20;0.10;;;;;;;;;;4929170;29;20051;-86
2023/12/10 00:36:07;;;;;;;0.40;0.20;;;;;;;;;;4931766;29;20040;-84
2023/12/10 00:38:38;;;;;;;0.20;0.10;;;;;;;;;;4918309;29;20043;-86
2023/12/10 00:41:11;;;;;;;0.20;0.10;;;;;;;;;;4932390;29;20046;-90
2023/12/10 00:43:38;;;;;;;0.20;0.10;;;;;;;;;;4914679;29;20059;-87
2023/12/10 00:46:05;;;;;;;0.57;0.57;;;;;;;;;;4929262;29;20051;-87
2023/12/10 00:48:31;;;;;;;0.20;0.10;;;;;;;;;;4930838;29;20065;-84
2023/12/10 00:50:57;;;;;;;0.20;0.00;;;;;;;;;;4931660;29;20044;-88
2023/12/10 00:53:23;;;;;;;0.20;0.05;;;;;;;;;;4914048;29;20048;-87
2023/12/10 00:55:49;;;;;;;0.20;0.10;;;;;;;;;;4914266;29;20079;-87
2023/12/10 00:58:18;;;;;;;0.20;0.10;;;;;;;;;;4915450;29;20040;-87
2023/12/10 01:00:45;;;;;;;2.28;1.85;;;;;;;;;;4926213;29;20042;-87
2023/12/10 01:03:11;;;;;;;0.88;0.13;;;;;;;;;;4912035;29;20059;-89
2023/12/10 01:05:40;;;;;;;0.20;0.00;;;;;;;;;;4914913;29;20035;-87
2023/12/10 01:08:06;;;;;;;0.20;0.00;;;;;;;;;;4929263;29;20099;-90
2023/12/10 01:10:32;;;;;;;0.20;0.10;;;;;;;;;;4927532;29;20106;-86
2023/12/10 01:12:58;;;;;;;4.07;0.20;;;;;;;;;;4910933;29;20047;-86
2023/12/10 01:15:30;;;;;;;0.20;0.00;;;;;;;;;;4915126;29;20038;-87
2023/12/10 01:18:00;;;;;;;0.20;0.10;;;;;;;;;;4913030;29;20043;-88
2023/12/10 01:20:37;;;;;;;0.20;0.10;;;;;;;;;;4913147;29;20039;-88
2023/12/10 01:23:07;;;;;;;0.82;0.73;;;;;;;;;;4931402;29;20051;-89
2023/12/10 01:25:39;;;;;;;0.20;0.00;;;;;;;;;;4915516;29;20051;-86
2023/12/10 01:28:08;;;;;;;0.40;0.40;;;;;;;;;;4931570;29;20047;-88
2023/12/10 01:30:35;;;;;;;0.20;0.10;;;;;;;;;;4914915;29;20042;-86
2023/12/10 01:33:04;;;;;;;0.20;0.00;;;;;;;;;;4916385;29;20044;-88
2023/12/10 01:35:33;;;;;;;1.55;1.05;;;;;;;;;;4912213;29;20043;-85
2023/12/10 01:38:05;;;;;;;0.20;0.10;;;;;;;;;;4917022;29;20086;-86
2023/12/10 01:40:32;;;;;;;0.68;0.68;;;;;;;;;;4913301;29;20052;-87
2023/12/10 01:43:11;;;;;;;0.20;0.10;;;;;;;;;;4932336;29;20047;-85
2023/12/10 01:45:40;;;;;;;0.20;0.00;;;;;;;;;;4918137;29;20058;-85
2023/12/10 01:48:06;;;;;;;0.20;0.00;;;;;;;;;;4927387;29;20130;-85
2023/12/10 01:50:36;;;;;;;0.20;0.10;;;;;;;;;;4930786;29;20420;-83
2023/12/10 01:53:02;;;;;;;0.20;0.00;;;;;;;;;;4907478;29;20645;-89
2023/12/10 01:55:35;;;;;;;0.20;0.00;;;;;;;;;;4909436;29;20118;-87
2023/12/10 01:58:04;;;;;;;0.20;0.00;;;;;;;;;;4913880;29;20122;-86
2023/12/10 02:00:31;;;;;;;0.20;0.10;;;;;;;;;;4909807;29;20090;-85
2023/12/10 02:02:59;;;;;;;0.20;0.10;;;;;;;;;;4911224;29;20428;-84
2023/12/10 02:05:28;;;;;;;0.60;0.57;;;;;;;;;;4912686;29;21270;-89
2023/12/10 02:07:54;;;;;;;0.20;0.00;;;;;;;;;;4929812;29;20468;-86
2023/12/10 02:10:20;;;;;;;0.20;0.00;;;;;;;;;;4911365;29;20032;-86
2023/12/10 02:12:47;;;;;;;0.20;0.00;;;;;;;;;;4928163;29;20134;-86
2023/12/10 02:15:16;;;;;;;0.20;0.00;;;;;;;;;;4914701;29;20743;-85
2023/12/10 02:17:45;;;;;;;0.20;0.10;;;;;;;;;;4931022;29;20050;-85
2023/12/10 02:20:14;;;;;;;0.20;0.10;;;;;;;;;;4931077;29;20027;-88
2023/12/10 02:23:00;;;;;;;0.20;0.10;;;;;;;;;;4915935;29;20046;-85
2023/12/10 02:25:32;;;;;;;0.20;0.20;;;;;;;;;;4894112;29;20127;-88
2023/12/10 02:27:58;;;;;;;0.20;0.00;;;;;;;;;;4911310;29;20074;-88
2023/12/10 02:30:24;;;;;;;0.20;0.10;;;;;;;;;;4914778;29;20032;-87
2023/12/10 02:32:53;;;;;;;0.43;0.43;;;;;;;;;;4926948;29;20047;-86
2023/12/10 02:35:26;;;;;;;0.20;0.10;;;;;;;;;;4927615;29;20031;-88
2023/12/10 02:37:52;;;;;;;0.20;0.00;;;;;;;;;;4928394;29;20114;-88
2023/12/10 02:40:21;;;;;;;0.20;0.10;;;;;;;;;;4910456;29;20577;-88
2023/12/10 02:42:48;;;;;;;0.75;0.75;;;;;;;;;;4912822;29;20628;-86
2023/12/10 02:45:14;;;;;;;0.20;0.00;;;;;;;;;;4912946;29;20543;-86
2023/12/10 02:47:40;;;;;;;0.20;0.10;;;;;;;;;;4929364;29;20179;-88
2023/12/10 02:50:07;;;;;;;0.45;0.45;;;;;;;;;;4909487;29;20461;-85
2023/12/10 02:52:40;;;;;;;0.20;0.08;;;;;;;;;;4913950;29;20054;-88
2023/12/10 02:55:09;;;;;;;0.20;0.20;;;;;;;;;;4908377;29;20389;-87
2023/12/10 02:57:35;;;;;;;0.20;0.00;;;;;;;;;;4914190;29;20671;-86
2023/12/10 03:00:01;;;;;;;0.20;0.00;;;;;;;;;;4930036;29;20044;-87
2023/12/10 03:02:30;;;;;;;0.20;0.10;;;;;;;;;;4928367;29;20043;-88
2023/12/10 03:04:56;;;;;;;0.20;0.10;;;;;;;;;;4912645;29;20048;-86
2023/12/10 03:07:25;;;;;;;0.20;0.08;;;;;;;;;;4913251;29;20504;-87
2023/12/10 03:09:51;;;;;;;0.70;0.70;;;;;;;;;;4928401;23;20051;-86
2023/12/10 03:12:20;;;;;;;0.20;0.00;;;;;;;;;;4944797;28;20358;-88
2023/12/10 03:14:49;;;;;;;0.20;0.00;;;;;;;;;;4942616;28;20129;-86
2023/12/10 03:17:18;;;;;;;0.20;0.00;;;;;;;;;;4942711;28;20042;-87
2023/12/10 03:19:50;;;;;;;0.50;0.40;;;;;;;;;;4944418;28;20042;-89
2023/12/10 03:22:19;;;;;;;0.20;0.00;;;;;;;;;;4944490;28;20295;-85
2023/12/10 03:24:48;;;;;;;0.20;0.00;;;;;;;;;;4947043;28;20043;-85
2023/12/10 03:27:17;;;;;;;0.22;0.22;;;;;;;;;;4959897;28;20046;-88
2023/12/10 03:30:01;;;;;;;0.20;0.10;;;;;;;;;;4946645;28;20062;-87
2023/12/10 03:32:34;;;;;;;0.20;0.00;;;;;;;;;;4942248;28;20070;-87
2023/12/10 03:35:12;;;;;;;0.30;0.30;;;;;;;;;;4945633;28;20074;-88
2023/12/10 03:37:43;;;;;;;0.20;0.00;;;;;;;;;;4931482;28;20078;-86
2023/12/10 03:40:13;;;;;;;0.20;0.10;;;;;;;;;;4960819;28;20100;-89
2023/12/10 03:42:41;;;;;;;0.30;0.30;;;;;;;;;;4943136;28;20189;-83
2023/12/10 03:45:32;;;;;;;0.20;0.00;;;;;;;;;;4935389;28;20604;-86
2023/12/10 03:48:07;;;;;;;0.20;0.10;;;;;;;;;;4936967;28;20100;-87
2023/12/10 03:50:33;;;;;;;0.20;0.00;;;;;;;;;;4961217;28;20043;-85
2023/12/10 03:53:02;;;;;;;0.20;0.00;;;;;;;;;;4946314;28;20118;-90
2023/12/10 03:55:33;;;;;;;0.20;0.10;;;;;;;;;;4937932;28;20081;-85
2023/12/10 03:57:59;;;;;;;0.30;0.20;;;;;;;;;;4936657;28;20046;-85
2023/12/10 04:00:30;;;;;;;0.20;0.00;;;;;;;;;;4938093;28;20558;-86
2023/12/10 04:03:00;;;;;;;0.20;0.00;;;;;;;;;;4954870;28;20051;-86
2023/12/10 04:05:29;;;;;;;0.20;0.03;;;;;;;;;;4937816;28;20042;-85
2023/12/10 04:08:10;;;;;;;0.20;0.10;;;;;;;;;;4964934;28;20679;-87
2023/12/10 04:10:56;;;;;;;0.20;0.00;;;;;;;;;;4946077;28;20121;-85
2023/12/10 04:13:24;;;;;;;0.20;0.10;;;;;;;;;;4951790;28;20054;-86
2023/12/10 04:16:19;;;;;;;0.20;0.00;;;;;;;;;;4979031;28;20042;-88
2023/12/10 04:18:45;;;;;;;0.20;0.00;;;;;;;;;;4939905;28;20504;-86
2023/12/10 04:21:11;;;;;;;0.20;0.10;;;;;;;;;;4972557;28;20039;-86
2023/12/10 04:23:40;;;;;;;0.20;0.10;;;;;;;;;;4950486;28;20053;-85
2023/12/10 04:26:29;;;;;;;0.20;0.00;;;;;;;;;;4946463;28;20047;-87
2023/12/10 04:28:55;;;;;;;0.20;0.00;;;;;;;;;;4950498;28;20422;-86
2023/12/10 04:31:21;;;;;;;0.20;0.00;;;;;;;;;;4964969;28;20095;-86
2023/12/10 04:37:07;;;;;;;0.20;0.00;;;;;;;;;;4945858;28;20043;-87
2023/12/10 04:39:37;;;;;;;0.20;0.10;;;;;;;;;;4944139;28;20043;-86
2023/12/10 04:42:12;;;;;;;0.20;0.00;;;;;;;;;;4963457;28;20046;-88
2023/12/10 04:44:38;;;;;;;0.20;0.00;;;;;;;;;;4967585;28;20077;-85
2023/12/10 04:47:07;;;;;;;0.20;0.10;;;;;;;;;;4951071;28;20046;-85
2023/12/10 04:49:35;;;;;;;0.20;0.10;;;;;;;;;;4951476;28;20141;-87
2023/12/10 04:52:09;;;;;;;0.20;0.00;;;;;;;;;;4947712;28;20657;-87
2023/12/10 04:54:47;;;;;;;0.20;0.00;;;;;;;;;;4949190;28;20066;-86
2023/12/10 05:00:24;;;;;;;0.20;0.10;;;;;;;;;;4948516;28;20054;-86
2023/12/10 05:02:56;;;;;;;0.20;0.10;;;;;;;;;;4962608;28;20038;-86
2023/12/10 05:05:25;;;;;;;0.20;0.00;;;;;;;;;;4955638;28;20046;-85
2023/12/10 05:07:57;;;;;;;0.20;0.10;;;;;;;;;;4947613;28;20053;-86
2023/12/10 05:10:23;;;;;;;0.20;0.10;;;;;;;;;;4964713;28;20547;-86
2023/12/10 05:12:49;;;;;;;0.20;0.08;;;;;;;;;;4950105;28;20054;-87
2023/12/10 05:15:15;;;;;;;0.60;0.52;;;;;;;;;;4948516;28;20035;-86
2023/12/10 05:17:45;;;;;;;0.20;0.10;;;;;;;;;;4946529;28;20037;-86
2023/12/10 05:20:11;;;;;;;0.20;0.10;;;;;;;;;;4951061;28;20199;-87
2023/12/10 05:22:50;;;;;;;0.20;0.00;;;;;;;;;;4930378;28;20042;-84
2023/12/10 05:25:19;;;;;;;0.20;0.00;;;;;;;;;;4984367;28;20035;-86
2023/12/10 05:27:47;;;;;;;0.20;0.10;;;;;;;;;;4962156;28;20145;-84
2023/12/10 05:30:20;;;;;;;0.20;0.10;;;;;;;;;;4939043;28;20500;-87
2023/12/10 05:32:46;;;;;;;0.20;0.00;;;;;;;;;;4960187;28;20428;-85
2023/12/10 05:35:15;;;;;;;0.35;0.35;;;;;;;;;;4945185;28;20031;-86
2023/12/10 05:37:43;;;;;;;0.20;0.08;;;;;;;;;;4945710;28;20672;-89
2023/12/10 05:40:09;;;;;;;0.20;0.05;;;;;;;;;;4962381;28;20106;-89
2023/12/10 05:42:35;;;;;;;0.20;0.00;;;;;;;;;;4946966;28;20065;-86
2023/12/10 05:45:07;;;;;;;0.20;0.00;;;;;;;;;;4950150;28;20129;-91
2023/12/10 05:47:33;;;;;;;0.20;0.10;;;;;;;;;;4949412;28;20523;-87
2023/12/10 05:50:05;;;;;;;0.20;0.00;;;;;;;;;;4944903;28;20058;-88
2023/12/10 05:52:34;;;;;;;0.20;0.10;;;;;;;;;;4939966;28;20039;-88
2023/12/10 05:55:01;;;;;;;0.20;0.05;;;;;;;;;;4959859;28;20472;-87
2023/12/10 05:57:36;;;;;;;0.20;0.05;;;;;;;;;;4930409;28;20126;-87
2023/12/10 06:00:03;;;;;;;0.20;0.10;;;;;;;;;;4964536;28;20119;-86
2023/12/10 06:02:41;;;;;;;0.20;0.10;;;;;;;;;;4944840;28;20045;-84
2023/12/10 06:05:19;;;;;;;0.20;0.03;;;;;;;;;;4949107;28;20042;-83
2023/12/10 06:10:46;;;;;;;0.20;0.03;;;;;;;;;;4945849;28;20054;-88
2023/12/10 06:13:21;;;;;;;0.20;0.00;;;;;;;;;;4935605;28;20047;-86
2023/12/10 06:15:50;;;;;;;0.20;0.03;;;;;;;;;;4951791;28;20096;-88
2023/12/10 06:18:19;;;;;;;2.08;0.75;;;;;;;;;;4945713;28;20118;-86
2023/12/10 06:20:45;;;;;;;0.20;0.00;;;;;;;;;;4947827;28;20479;-87
2023/12/10 06:26:04;;;;;;;0.43;0.43;;;;;;;;;;4944681;28;20748;-85
2023/12/10 06:28:35;;;;;;;0.20;0.10;;;;;;;;;;4936363;28;20408;-87
2023/12/10 06:31:02;;;;;;;0.20;0.00;;;;;;;;;;4949248;28;20038;-87
2023/12/10 06:33:47;;;;;;;0.20;0.00;;;;;;;;;;4890879;29;20108;-85
2023/12/10 06:36:16;;;;;;;0.20;0.00;;;;;;;;;;4895048;29;20465;-86
2023/12/10 06:38:45;;;;;;;0.20;0.00;;;;;;;;;;4918191;28;20046;-88
2023/12/10 06:41:14;;;;;;;0.20;0.10;;;;;;;;;;4933504;28;20066;-87
2023/12/10 06:43:40;;;;;;;0.20;0.10;;;;;;;;;;4948050;28;20039;-87
2023/12/10 06:46:17;;;;;;;0.20;0.00;;;;;;;;;;4936700;28;20058;-86
2023/12/10 06:48:55;;;;;;;0.20;0.00;;;;;;;;;;4948441;28;20043;-87
2023/12/10 06:51:27;;;;;;;0.20;0.10;;;;;;;;;;4939622;28;20451;-86
2023/12/10 06:53:53;;;;;;;0.50;0.43;;;;;;;;;;4943748;28;20074;-87
2023/12/10 06:56:25;;;;;;;1.58;0.10;;;;;;;;;;4948951;28;20034;-86
2023/12/10 06:58:56;;;;;;;3.33;1.10;;;;;;;;;;4949976;28;20058;-87
2023/12/10 07:01:28;;;;;;;0.20;0.00;;;;;;;;;;4972315;23;20054;-87
2023/12/10 07:04:00;;;;;;;0.20;0.10;;;;;;;;;;4946671;28;20515;-89
2023/12/10 07:06:35;;;;;;;0.32;0.28;;;;;;;;;;4946137;28;20042;-86
2023/12/10 07:09:06;;;;;;;0.20;0.00;;;;;;;;;;4958621;28;21083;-86
2023/12/10 07:11:56;;;;;;;0.45;0.45;;;;;;;;;;4958894;28;20060;-88
2023/12/10 07:14:22;;;;;;;0.20;0.00;;;;;;;;;;4959511;28;20066;-85
2023/12/10 07:16:55;;;;;;;0.20;0.00;;;;;;;;;;4960473;28;20419;-86
2023/12/10 07:19:28;;;;;;;0.20;0.10;;;;;;;;;;4963649;28;20038;-84
2023/12/10 07:22:03;;;;;;;0.20;0.10;;;;;;;;;;4962253;28;20066;-89
2023/12/10 07:24:39;;;;;;;0.70;0.70;;;;;;;;;;4965251;28;20092;-87
2023/12/10 07:27:29;;;;;;;0.20;0.00;;;;;;;;;;4979626;28;20404;-88
2023/12/10 07:30:00;;;;;;;0.20;0.10;;;;;;;;;;4981332;28;20627;-88
2023/12/10 07:32:27;;;;;;;0.20;0.00;;;;;;;;;;4983518;28;20204;-88
2023/12/10 07:34:56;;;;;;;0.20;0.00;;;;;;;;;;4970023;28;20109;-85
2023/12/10 07:37:49;;;;;;;0.20;0.00;;;;;;;;;;4985645;28;20082;-84
2023/12/10 07:44:05;;;;;;;0.20;0.10;;;;;;;;;;4946209;28;20058;-88
2023/12/10 07:46:51;;;;;;;0.20;0.10;;;;;;;;;;4985492;28;20085;-88
2023/12/10 07:49:29;;;;;;;0.20;0.10;;;;;;;;;;4985000;28;20054;-87
2023/12/10 07:52:09;;;;;;;0.20;0.10;;;;;;;;;;4968732;28;20058;-84
2023/12/10 07:55:10;;;;;;;0.20;0.08;;;;;;;;;;4979713;28;20446;-88
2023/12/10 07:57:36;;;;;;;0.20;0.10;;;;;;;;;;4965315;28;20061;-85
2023/12/10 08:00:32;;;;;;;0.20;0.10;;;;;;;;;;4978846;28;20086;-88
2023/12/10 08:02:58;;;;;;;0.20;0.00;;;;;;;;;;4940738;28;20066;-87
2023/12/10 08:05:24;;;;;;;0.20;0.20;;;;;;;;;;4966991;28;20046;-85
2023/12/10 08:07:51;;;;;;;0.20;0.00;;;;;;;;;;4964134;28;20084;-88
2023/12/10 08:10:23;;;;;;;0.20;0.10;;;;;;;;;;4967348;28;20043;-87
2023/12/10 08:13:04;;;;;;;0.20;0.00;;;;;;;;;;4977045;28;20085;-86
2023/12/10 08:15:56;;;;;;;0.20;0.00;;;;;;;;;;4983716;28;20057;-86
2023/12/10 08:18:22;;;;;;;0.20;0.00;;;;;;;;;;4964297;28;20046;-87
2023/12/10 08:20:54;;;;;;;0.20;0.10;;;;;;;;;;4976825;28;20069;-86
2023/12/10 08:23:23;;;;;;;0.20;0.10;;;;;;;;;;4962012;28;20082;-86
2023/12/10 08:25:52;;;;;;;0.20;0.00;;;;;;;;;;4967634;28;20053;-88
2023/12/10 08:28:29;;;;;;;0.20;0.00;;;;;;;;;;4970127;28;20104;-86
2023/12/10 08:30:58;;;;;;;0.20;0.00;;;;;;;;;;4969004;28;20077;-87
2023/12/10 08:33:29;;;;;;;0.20;0.10;;;;;;;;;;4971828;28;20042;-87
2023/12/10 08:35:58;;;;;;;0.20;0.10;;;;;;;;;;4984945;28;20490;-86
2023/12/10 08:38:26;;;;;;;0.20;0.10;;;;;;;;;;4990194;28;20121;-86
2023/12/10 08:40:58;;;;;;;0.20;0.10;;;;;;;;;;4972818;28;20117;-84
2023/12/10 08:43:24;;;;;;;0.20;0.00;;;;;;;;;;4984482;28;20062;-86
2023/12/10 08:45:50;;;;;;;0.20;0.10;;;;;;;;;;5001752;28;20065;-87
2023/12/10 08:48:28;;;;;;;0.20;0.00;;;;;;;;;;4997609;28;20051;-85
2023/12/10 08:51:03;;;;;;;0.20;0.10;;;;;;;;;;4981064;28;20153;-87
2023/12/10 08:53:29;;;;;;;0.20;0.10;;;;;;;;;;4985964;28;20069;-87
2023/12/10 08:55:55;;;;;;;0.20;0.03;;;;;;;;;;4968925;28;20066;-86
2023/12/10 08:58:21;;;;;;;0.20;0.10;;;;;;;;;;4970787;28;20034;-86
2023/12/10 09:00:53;;;;;;;0.20;0.15;;;;;;;;;;4979370;28;20710;-85
2023/12/10 09:03:49;;;;;;;0.20;0.00;;;;;;;;;;4969231;28;20062;-86
2023/12/10 09:06:15;;;;;;;0.20;0.00;;;;;;;;;;4981638;28;20045;-85
2023/12/10 09:08:41;;;;;;;0.20;0.00;;;;;;;;;;4964967;28;20053;-87
2023/12/10 09:11:07;;;;;;;0.20;0.20;;;;;;;;;;4994012;23;20514;-85
2023/12/10 09:13:35;;;;;;;0.20;0.10;;;;;;;;;;4994054;28;20038;-87
2023/12/10 09:16:06;;;;;;;0.20;0.00;;;;;;;;;;4992271;28;20054;-86
2023/12/10 09:18:38;;;;;;;0.28;0.28;;;;;;;;;;4985954;28;20113;-87
2023/12/10 09:21:05;;;;;;;0.20;0.00;;;;;;;;;;4997140;28;20081;-87
2023/12/10 09:23:34;;;;;;;0.20;0.10;;;;;;;;;;4995598;28;20046;-85
2023/12/10 09:26:08;;;;;;;0.20;0.10;;;;;;;;;;4979683;28;20193;-86
2023/12/10 09:28:35;;;;;;;0.20;0.10;;;;;;;;;;4984426;28;20610;-87
2023/12/10 09:31:01;;;;;;;0.20;0.10;;;;;;;;;;4995625;28;20514;-88
2023/12/10 09:33:42;;;;;;;0.52;0.52;;;;;;;;;;4985871;28;20054;-87
2023/12/10 09:36:14;;;;;;;1.20;1.20;;;;;;;;;;4981590;28;20594;-87
2023/12/10 09:38:40;;;;;;;0.20;0.10;;;;;;;;;;4992498;28;20206;-88
2023/12/10 09:41:09;;;;;;;0.20;0.00;;;;;;;;;;4977036;28;20438;-89
2023/12/10 09:43:38;;;;;;;0.20;0.10;;;;;;;;;;4979071;28;20102;-87
2023/12/10 09:46:16;;;;;;;0.20;0.00;;;;;;;;;;4983828;28;20498;-88
2023/12/10 09:48:42;;;;;;;0.20;0.03;;;;;;;;;;4985518;28;20041;-85
2023/12/10 09:51:11;;;;;;;0.20;0.00;;;;;;;;;;4980288;28;20053;-87
2023/12/10 09:53:40;;;;;;;0.20;0.10;;;;;;;;;;4979107;28;20058;-84
2023/12/10 09:56:09;;;;;;;0.20;0.10;;;;;;;;;;4993158;28;20171;-86
2023/12/10 09:58:35;;;;;;;0.20;0.10;;;;;;;;;;4980673;28;20030;-87
2023/12/10 10:01:07;;;;;;;0.20;0.10;;;;;;;;;;4978872;28;20388;-83
2023/12/10 10:03:41;;;;;;;0.20;0.10;;;;;;;;;;4984278;28;20575;-87
2023/12/10 10:06:07;;;;;;;17.75;0.55;;;;;;;;;;4982607;28;20042;-88
2023/12/10 10:08:41;;;;;;;0.20;0.10;;;;;;;;;;4995550;28;20042;-87
2023/12/10 10:11:14;;;;;;;0.43;0.43;;;;;;;;;;4978909;28;20202;-86
2023/12/10 10:13:56;;;;;;;0.20;0.08;;;;;;;;;;5003678;28;20045;-88
2023/12/10 10:16:22;;;;;;;0.20;0.10;;;;;;;;;;4999045;28;20483;-88
2023/12/10 10:18:59;;;;;;;0.20;0.00;;;;;;;;;;4982495;28;20061;-87
2023/12/10 10:21:25;;;;;;;0.20;0.10;;;;;;;;;;5018142;28;20096;-88
2023/12/10 10:23:53;;;;;;;0.20;0.10;;;;;;;;;;4981960;28;20046;-87
2023/12/10 10:26:22;;;;;;;0.20;0.10;;;;;;;;;;4985551;28;20068;-86
2023/12/10 10:28:51;;;;;;;0.20;0.10;;;;;;;;;;4996343;28;20038;-84
2023/12/10 10:31:21;;;;;;;0.20;0.00;;;;;;;;;;4982184;28;20069;-88
2023/12/10 10:33:47;;;;;;;0.52;0.52;;;;;;;;;;4992390;28;20150;-85
2023/12/10 10:36:21;;;;;;;0.25;0.20;;;;;;;;;;4980497;28;20034;-86
2023/12/10 10:38:48;;;;;;;0.20;0.10;;;;;;;;;;4978905;28;20045;-88
2023/12/10 10:41:17;;;;;;;0.20;0.00;;;;;;;;;;4999164;28;20050;-84
2023/12/10 10:43:46;;;;;;;0.20;0.05;;;;;;;;;;4997386;28;20157;-86
2023/12/10 10:46:22;;;;;;;0.20;0.00;;;;;;;;;;4979148;28;20050;-87
2023/12/10 10:48:51;;;;;;;0.20;0.00;;;;;;;;;;4999093;28;20076;-88
2023/12/10 10:51:25;;;;;;;0.20;0.20;;;;;;;;;;4995493;28;20042;-82
2023/12/10 10:53:53;;;;;;;0.68;0.30;;;;;;;;;;4987049;28;20046;-85
2023/12/10 10:56:25;;;;;;;0.20;0.10;;;;;;;;;;4983767;28;20050;-85
2023/12/10 10:58:59;;;;;;;0.20;0.00;;;;;;;;;;4996683;28;20045;-87
2023/12/10 11:01:39;;;;;;;0.20;0.00;;;;;;;;;;4998306;28;20550;-86
2023/12/10 11:04:06;;;;;;;0.20;0.03;;;;;;;;;;4995539;28;20577;-86
2023/12/10 11:06:50;;;;;;;0.20;0.10;;;;;;;;;;4982968;28;20518;-88
2023/12/10 11:09:30;;;;;;;0.22;0.22;;;;;;;;;;4978865;28;20058;-86
2023/12/10 11:12:02;;;;;;;0.20;0.10;;;;;;;;;;4979684;28;20126;-86
2023/12/10 11:14:33;;;;;;;0.20;0.10;;;;;;;;;;4978714;28;20046;-87
2023/12/10 11:17:06;;;;;;;0.20;0.10;;;;;;;;;;4988846;28;20049;-89
2023/12/10 11:19:33;;;;;;;0.20;0.10;;;;;;;;;;4986545;28;20046;-86
2023/12/10 11:22:08;;;;;;;0.20;0.00;;;;;;;;;;4995179;28;20385;-84
2023/12/10 11:24:34;;;;;;;0.25;0.17;;;;;;;;;;4994792;28;20045;-84
2023/12/10 11:27:01;;;;;;;0.20;0.10;;;;;;;;;;4975608;28;20538;-89
2023/12/10 11:29:30;;;;;;;0.20;0.00;;;;;;;;;;4986369;28;20041;-88
2023/12/10 11:31:58;;;;;;;0.20;0.10;;;;;;;;;;4992221;28;20054;-83
2023/12/10 11:34:25;;;;;;;0.20;0.10;;;;;;;;;;5008347;28;20057;-85
2023/12/10 11:36:51;;;;;;;0.20;0.00;;;;;;;;;;4998728;28;20042;-87
2023/12/10 11:39:28;;;;;;;0.20;0.10;;;;;;;;;;4978454;28;20419;-88
2023/12/10 11:42:12;;;;;;;1.65;0.68;;;;;;;;;;4983067;28;20132;-85
2023/12/10 11:44:41;;;;;;;0.20;0.10;;;;;;;;;;4996171;28;20044;-85
2023/12/10 11:47:25;;;;;;;0.20;0.10;;;;;;;;;;4984242;28;20041;-88
2023/12/10 11:49:51;;;;;;;0.20;0.10;;;;;;;;;;4981779;28;20041;-86
2023/12/10 11:52:28;;;;;;;0.20;0.00;;;;;;;;;;4980041;28;20049;-89
2023/12/10 11:54:57;;;;;;;0.20;0.00;;;;;;;;;;5002872;28;20050;-86
2023/12/10 11:57:23;;;;;;;1.67;1.00;;;;;;;;;;4996821;28;20101;-86
2023/12/10 11:59:56;;;;;;;0.20;0.00;;;;;;;;;;4993809;28;20038;-83
2023/12/10 12:02:22;;;;;;;;;;;;;;;;;;4980992;28;20046;-86
2023/12/10 12:04:51;;;;;;;0.20;0.00;;;;;;;;;;4976551;28;20000;-87
2023/12/10 12:07:32;;;;;;;0.20;0.10;;;;;;;;;;4982511;28;20078;-87
2023/12/10 12:10:01;;;;;;;0.20;0.00;;;;;;;;;;4997798;28;20495;-88
2023/12/10 12:12:27;;;;;;;0.20;0.00;;;;;;;;;;4986293;28;20132;-87
2023/12/10 12:14:54;;;;;;;0.20;0.10;;;;;;;;;;4979987;28;20030;-88
2023/12/10 12:17:29;;;;;;;0.20;0.10;;;;;;;;;;4998988;28;20107;-87
2023/12/10 12:19:55;;;;;;;0.20;0.10;;;;;;;;;;4999151;28;20215;-85
2023/12/10 12:22:22;;;;;;;0.20;0.10;;;;;;;;;;4981143;28;20042;-85
2023/12/10 12:24:54;;;;;;;0.90;0.90;;;;;;;;;;4984043;28;20046;-85
2023/12/10 12:27:29;;;;;;;0.63;0.15;;;;;;;;;;4990147;28;20104;-87
2023/12/10 12:30:04;;;;;;;0.20;0.10;;;;;;;;;;4986761;28;20124;-86
2023/12/10 12:32:30;;;;;;;0.20;0.10;;;;;;;;;;4995174;28;20341;-85
2023/12/10 12:34:56;;;;;;;0.20;0.10;;;;;;;;;;4986217;28;20050;-84
2023/12/10 12:37:22;;;;;;;0.20;0.00;;;;;;;;;;4999012;28;20050;-85
2023/12/10 12:40:03;;;;;;;0.20;0.10;;;;;;;;;;4987001;28;20115;-87
2023/12/10 12:42:32;;;;;;;0.20;0.00;;;;;;;;;;5002599;28;20447;-86
2023/12/10 12:45:17;;;;;;;0.20;0.10;;;;;;;;;;4979830;28;20120;-86
2023/12/10 12:47:48;;;;;;;0.20;0.10;;;;;;;;;;4984944;28;20074;-83
2023/12/10 12:50:24;;;;;;;0.20;0.10;;;;;;;;;;4984547;28;20046;-86
2023/12/10 12:52:56;;;;;;;0.20;0.10;;;;;;;;;;4997355;28;20042;-86
2023/12/10 12:55:27;;;;;;;0.20;0.10;;;;;;;;;;5001193;28;20039;-86
2023/12/10 12:57:53;;;;;;;0.75;0.43;;;;;;;;;;4981443;28;20527;-85
2023/12/10 13:00:31;;;;;;;0.22;0.22;;;;;;;;;;4983785;28;20042;-86
2023/12/10 13:03:04;;;;;;;0.20;0.00;;;;;;;;;;4981382;28;20042;-86
2023/12/10 13:05:30;;;;;;;0.20;0.03;;;;;;;;;;4983149;28;20042;-85
2023/12/10 13:07:59;;;;;;;0.30;0.20;;;;;;;;;;5003090;28;20042;-86
2023/12/10 13:10:25;;;;;;;0.20;0.10;;;;;;;;;;4987762;28;20073;-88
2023/12/10 13:12:51;;;;;;;9.85;1.88;;;;;;;;;;4996869;28;20123;-82
2023/12/10 13:15:17;;;;;;;0.20;0.10;;;;;;;;;;5005533;28;20037;-83
2023/12/10 13:17:43;;;;;;;0.20;0.10;;;;;;;;;;4993823;28;20038;-86
2023/12/10 13:20:13;;;;;;;0.20;0.00;;;;;;;;;;4985869;28;20050;-85
2023/12/10 13:22:44;;;;;;;0.20;0.00;;;;;;;;;;4998452;28;20038;-86
2023/12/10 13:25:14;;;;;;;0.20;0.10;;;;;;;;;;5001395;28;20128;-86
2023/12/10 13:27:54;;;;;;;0.20;0.10;;;;;;;;;;4982414;28;20495;-89
2023/12/10 13:30:20;;;;;;;0.20;0.10;;;;;;;;;;4984593;28;20529;-84
2023/12/10 13:32:49;;;;;;;0.20;0.10;;;;;;;;;;4981018;28;20064;-86
2023/12/10 13:35:21;;;;;;;0.73;0.73;;;;;;;;;;4978898;28;20042;-84
2023/12/10 13:37:53;;;;;;;0.20;0.00;;;;;;;;;;4983505;28;20038;-87
2023/12/10 13:40:19;;;;;;;0.65;0.65;;;;;;;;;;4979731;28;20069;-87
2023/12/10 13:42:48;;;;;;;0.20;0.10;;;;;;;;;;4978929;28;20053;-87
2023/12/10 13:45:14;;;;;;;0.20;0.10;;;;;;;;;;4983581;28;20120;-86
2023/12/10 13:47:41;;;;;;;0.20;0.08;;;;;;;;;;4995060;28;20050;-86
2023/12/10 13:50:09;;;;;;;0.20;0.10;;;;;;;;;;4997614;28;20180;-85
2023/12/10 13:52:42;;;;;;;0.20;0.10;;;;;;;;;;4999858;28;20121;-84
2023/12/10 13:55:09;;;;;;;0.20;0.10;;;;;;;;;;4997713;28;20054;-86
2023/12/10 13:57:40;;;;;;;0.20;0.10;;;;;;;;;;4994369;28;20030;-87
2023/12/10 14:00:08;;;;;;;0.20;0.00;;;;;;;;;;4995667;28;20045;-85
2023/12/10 14:02:39;;;;;;;0.20;0.10;;;;;;;;;;4994417;28;20082;-87
2023/12/10 14:05:08;;;;;;;0.40;0.40;;;;;;;;;;4999853;28;21016;-87
2023/12/10 14:07:35;;;;;;;0.20;0.10;;;;;;;;;;4982254;28;20406;-87
2023/12/10 14:10:01;;;;;;;0.45;0.45;;;;;;;;;;4994974;28;20518;-87
2023/12/10 14:12:27;;;;;;;0.20;0.00;;;;;;;;;;4981251;28;20137;-88
2023/12/10 14:14:53;;;;;;;0.35;0.20;;;;;;;;;;4974163;28;20046;-89
2023/12/10 14:17:22;;;;;;;0.20;0.10;;;;;;;;;;4998236;28;20046;-85
2023/12/10 14:19:55;;;;;;;0.20;0.00;;;;;;;;;;4992878;28;20120;-86
2023/12/10 14:22:23;;;;;;;0.20;0.10;;;;;;;;;;4995905;28;20414;-87
2023/12/10 14:24:50;;;;;;;0.20;0.00;;;;;;;;;;4996377;28;20046;-88
2023/12/10 14:27:16;;;;;;;0.20;0.00;;;;;;;;;;4978965;28;20046;-85
2023/12/10 14:29:43;;;;;;;0.20;0.10;;;;;;;;;;4982253;28;20073;-86
2023/12/10 14:32:09;;;;;;;0.20;0.10;;;;;;;;;;4978715;28;20045;-86
2023/12/10 14:34:35;;;;;;;0.20;0.08;;;;;;;;;;4996925;28;20076;-86
2023/12/10 14:37:04;;;;;;;0.20;0.00;;;;;;;;;;4978626;28;20070;-91
2023/12/10 14:39:36;;;;;;;0.20;0.05;;;;;;;;;;4977280;28;20069;-86
2023/12/10 14:42:02;;;;;;;;;;;;;;;;;;4983185;28;20045;-86
2023/12/10 14:44:37;;;;;;;0.20;0.10;;;;;;;;;;4973849;28;19933;-85
2023/12/10 14:47:07;;;;;;;0.20;0.10;;;;;;;;;;4983243;28;20150;-87
2023/12/10 14:49:33;;;;;;;0.20;0.10;;;;;;;;;;4989940;28;20077;-84
2023/12/10 14:51:59;;;;;;;0.20;0.00;;;;;;;;;;4988502;28;20050;-88
2023/12/10 14:54:31;;;;;;;0.20;0.10;;;;;;;;;;4980924;28;20038;-86
2023/12/10 14:56:57;;;;;;;0.20;0.08;;;;;;;;;;4981866;28;20065;-86
2023/12/10 14:59:37;;;;;;;0.43;0.40;;;;;;;;;;4976892;28;20039;-87
2023/12/10 15:02:03;;;;;;;0.20;0.00;;;;;;;;;;4990891;28;20046;-83
2023/12/10 15:04:32;;;;;;;0.20;0.03;;;;;;;;;;4989876;28;20116;-84
2023/12/10 15:06:58;;;;;;;0.20;0.00;;;;;;;;;;4974551;28;20133;-85
2023/12/10 15:09:28;;;;;;;0.68;0.68;;;;;;;;;;4975246;28;20453;-84
2023/12/10 15:11:54;;;;;;;0.20;0.10;;;;;;;;;;4990827;23;20054;-86
2023/12/10 15:14:26;;;;;;;0.20;0.10;;;;;;;;;;4957024;28;20582;-87
2023/12/10 15:16:55;;;;;;;0.75;0.75;;;;;;;;;;4961134;28;20075;-85
2023/12/10 15:19:24;;;;;;;0.20;0.00;;;;;;;;;;4964522;28;20047;-85